Nyk Romulus — 9V7644 — position and weather

sailwx.info

Track history (hours):
 
Tides and Currents Weather Stations Pressure Air Temp Water Temp Dewpoint Dewpoint Depression Visibility Wind Speed Wind Dir Waves Ship Positions

Nyk Romulus

Last reported at 2018-Jan-23 06:00 UTC. Time now 2018-Jan-23 06:22 UTC.
Position N 53°59' E 007°58'.

Length 294 m; draft 11.5 m.

Type: Cargo ship. MMSI: 563079000.

Date/timePositionNaut miles runAvg speedWind from/ knotsBaromVisibWave heightAir tempDewpointWater temp
2018-Jan-23 06:00N 53°59' E 007°58'5 9.7
2018-Jan-23 05:30N 53°58' E 007°50'6 9.6
2018-Jan-23 04:54N 53°57' E 007°40'6 8.0
2018-Jan-23 04:09N 53°56' E 007°30'2 8.0
2018-Jan-23 03:57N 53°56' E 007°28'2 4.8
2018-Jan-23 03:27N 53°58' E 007°25'5 5.5
2018-Jan-23 02:36N 54°02' E 007°23'1 1.2
2018-Jan-23 01:33N 54°02' E 007°21'0 1.5
2018-Jan-23 01:30N 54°02' E 007°21'81 3.1
2018-Jan-21 23:23N 53°33' E 005°14'821.6
2018-Jan-21 23:00N 53°29' E 005°01'1121.4
2018-Jan-21 22:30N 53°25' E 004°46'1020.8
2018-Jan-21 22:00N 53°16' E 004°36'1320.8
2018-Jan-21 21:22N 53°04' E 004°25'720.2
2018-Jan-21 21:00N 52°58' E 004°19'1020.2
2018-Jan-21 20:30N 52°49' E 004°11'2620.2
2018-Jan-21 19:14N 52°26' E 003°53'520.7
2018-Jan-21 19:00N 52°21' E 003°52'1020.4
2018-Jan-21 18:30N 52°11' E 003°54'815.7
2018-Jan-21 18:00N 52°03' E 003°54'5 9.3
2018-Jan-21 17:30N 52°01' E 004°00'4 8.7
2018-Jan-21 17:01N 51°57' E 004°05'1 1.6
2018-Jan-21 16:31N 51°57' E 004°04'0 0.7
2018-Jan-21 15:59N 51°57' E 004°03'0 0.0
2018-Jan-21 15:29N 51°57' E 004°03'0 0.0
2018-Jan-21 14:59N 51°57' E 004°03'0 0.0
2018-Jan-21 14:29N 51°57' E 004°03'0 0.0
2018-Jan-21 13:59N 51°57' E 004°03'0 0.0
2018-Jan-21 13:29N 51°57' E 004°03'0 0.0
2018-Jan-21 12:59N 51°57' E 004°03'0 0.0
2018-Jan-21 12:29N 51°57' E 004°03'0 0.0
2018-Jan-21 11:59N 51°57' E 004°03'0 0.0
2018-Jan-21 11:29N 51°57' E 004°03'0 0.0
2018-Jan-21 10:59N 51°57' E 004°03'0 0.0
2018-Jan-21 10:29N 51°57' E 004°03'0 0.0
2018-Jan-21 09:59N 51°57' E 004°03'0 0.0
2018-Jan-21 09:29N 51°57' E 004°03'0 0.0
2018-Jan-21 08:59N 51°57' E 004°03'0 0.0
2018-Jan-21 08:29N 51°57' E 004°03'0 0.0
2018-Jan-21 07:59N 51°57' E 004°03'0 0.0
2018-Jan-21 07:29N 51°57' E 004°03'0 0.0
2018-Jan-21 06:59N 51°57' E 004°03'0 0.0
2018-Jan-21 06:29N 51°57' E 004°03'0 0.0
2018-Jan-21 05:59N 51°57' E 004°03'0 0.0
2018-Jan-21 05:29N 51°57' E 004°03'0 0.0
2018-Jan-21 04:59N 51°57' E 004°03'0 0.0
2018-Jan-21 04:29N 51°57' E 004°03'0 0.0
2018-Jan-21 03:56N 51°57' E 004°03'0 0.0
2018-Jan-21 03:29N 51°57' E 004°03'0 0.0
2018-Jan-21 02:59N 51°57' E 004°03'0 0.0
2018-Jan-21 02:29N 51°57' E 004°03'0 0.0
2018-Jan-21 01:59N 51°57' E 004°03'0 0.0
2018-Jan-21 01:29N 51°57' E 004°03'0 0.0
2018-Jan-21 00:59N 51°57' E 004°03'0 0.0
2018-Jan-21 00:29N 51°57' E 004°03'0 0.0
2018-Jan-20 23:59N 51°57' E 004°03'0 0.0
2018-Jan-20 23:29N 51°57' E 004°03'0 0.0
2018-Jan-20 22:59N 51°57' E 004°03'0 0.0
2018-Jan-20 22:29N 51°57' E 004°03'1 1.1
2018-Jan-20 22:01N 51°57' E 004°04'2 3.7
2018-Jan-20 21:30N 51°59' E 004°05'3 6.6
2018-Jan-20 21:00N 52°00' E 003°60'3 6.3
2018-Jan-20 20:31N 52°01' E 003°55'3 6.9
2018-Jan-20 20:01N 51°60' E 003°49'5 9.7
2018-Jan-20 19:31N 51°59' E 003°42'510.5
2018-Jan-20 19:00N 51°57' E 003°34'19 2.8
2018-Jan-20 12:06N 51°53' E 003°03'0 0.7
2018-Jan-20 12:00N 51°54' E 003°03'26 6.0
2018-Jan-20 07:40N 51°40' E 002°27'2 8.7
2018-Jan-20 07:29N 51°39' E 002°25'4 7.8
2018-Jan-20 07:00N 51°36' E 002°22'4 8.5
2018-Jan-20 06:30N 51°33' E 002°17'510.4
2018-Jan-20 06:01N 51°29' E 002°12'611.5
2018-Jan-20 05:31N 51°24' E 002°06'4 8.9
2018-Jan-20 05:01N 51°21' E 002°01'5 9.2
2018-Jan-20 04:30N 51°18' E 001°56'5 9.6
2018-Jan-20 04:00N 51°14' E 001°50'612.7
2018-Jan-20 03:31N 51°09' E 001°44'713.1
2018-Jan-20 03:00N 51°04' E 001°38'612.2
2018-Jan-20 02:30N 50°59' E 001°33'611.5
2018-Jan-20 02:00N 50°54' E 001°28'1312.3
2018-Jan-20 00:59N 50°42' E 001°21'6 9.2
2018-Jan-20 00:17N 50°38' E 001°14'310.6
2018-Jan-20 00:00N 50°36' E 001°10'611.3
2018-Jan-19 23:30N 50°32' E 001°04'611.5
2018-Jan-19 22:57N 50°29' E 000°55'613.4
2018-Jan-19 22:30N 50°27' E 000°46'1212.7
2018-Jan-19 21:32N 50°22' E 000°28'112.2
2018-Jan-19 21:26N 50°22' E 000°27'512.1
2018-Jan-19 21:00N 50°20' E 000°19'612.0
2018-Jan-19 20:31N 50°18' E 000°10'612.0
2018-Jan-19 20:00N 50°15' E 000°02'811.9
2018-Jan-19 19:17N 50°09' W 000°07'311.2
2018-Jan-19 19:01N 50°06' W 000°09'5 9.6
2018-Jan-19 18:31N 50°01' W 000°10'0 0.7
2018-Jan-19 18:01N 50°01' W 000°11'0 0.8
2018-Jan-19 17:30N 50°01' W 000°11'0 0.5
2018-Jan-19 17:01N 50°01' W 000°12'0 0.3
2018-Jan-19 16:31N 50°01' W 000°12'1 1.8
2018-Jan-19 16:00N 50°01' W 000°11'511.1
2018-Jan-19 15:31N 49°58' W 000°04'2 3.6
2018-Jan-19 15:00N 49°58' W 000°01'0 0.7
2018-Jan-19 14:31N 49°58' W 000°01'0 0.8
2018-Jan-19 14:01N 49°59' W 000°01'0 0.9
2018-Jan-19 13:31N 49°59' W 000°01'1 1.1
2018-Jan-19 13:01N 49°59' W 000°02'1 1.5
2018-Jan-19 12:30N 49°60' W 000°03'1 1.9
2018-Jan-19 12:00N 49°60' W 000°05'1 2.3
2018-Jan-19 11:31N 50°00' W 000°06'1 2.7
2018-Jan-19 11:01N 50°00' W 000°09'2 3.1
2018-Jan-19 10:30N 50°00' W 000°11'2 3.3
2018-Jan-19 10:00N 50°00' W 000°14'2 3.5
2018-Jan-19 09:31N 50°00' W 000°16'2 3.5
2018-Jan-19 09:01N 50°01' W 000°19'2 3.3
2018-Jan-19 08:31N 50°01' W 000°21'2 3.2
2018-Jan-19 08:00N 50°02' W 000°24'1 2.7
2018-Jan-19 07:30N 50°02' W 000°26'1 1.5
2018-Jan-19 07:01N 50°03' W 000°27'2 5.0
2018-Jan-19 06:30N 50°01' W 000°24'510.6
2018-Jan-19 06:01N 49°57' W 000°18'2 4.4
2018-Jan-19 05:30N 49°57' W 000°14'1 1.4
2018-Jan-19 04:59N 49°58' W 000°14'1 1.3
2018-Jan-19 04:31N 49°58' W 000°14'1 1.4
2018-Jan-19 04:01N 49°59' W 000°14'1 1.2
2018-Jan-19 03:31N 49°59' W 000°13'1 1.3
2018-Jan-19 03:01N 50°00' W 000°13'1 1.1
2018-Jan-19 02:31N 50°01' W 000°13'0 0.9
2018-Jan-19 02:00N 50°01' W 000°13'0 0.9
2018-Jan-19 01:31N 50°01' W 000°13'1 1.1
2018-Jan-19 01:01N 50°02' W 000°14'1 1.4
2018-Jan-19 00:31N 50°02' W 000°15'1 2.0
2018-Jan-19 00:01N 50°02' W 000°16'1 2.5
2018-Jan-18 23:31N 50°03' W 000°18'2 3.1
2018-Jan-18 23:00N 50°03' W 000°20'2 3.6
2018-Jan-18 22:30N 50°03' W 000°23'2 4.1
2018-Jan-18 22:00N 50°03' W 000°26'2 3.9
2018-Jan-18 21:30N 50°03' W 000°29'2 4.5
2018-Jan-18 21:01N 50°02' W 000°26'4 8.6
2018-Jan-18 20:31N 50°01' W 000°20'4 8.9
2018-Jan-18 20:01N 49°59' W 000°14'5 9.0
2018-Jan-18 19:31N 49°57' W 000°08'1 2.0
2018-Jan-18 19:00N 49°58' W 000°08'1 2.2
2018-Jan-18 18:30N 49°58' W 000°10'1 2.0
2018-Jan-18 18:00N 49°59' W 000°11'1 1.6
2018-Jan-18 17:31N 49°60' W 000°11'1 1.2
2018-Jan-18 17:01N 50°00' W 000°12'1 1.0
2018-Jan-18 16:31N 50°01' W 000°12'0 0.9
2018-Jan-18 16:01N 50°01' W 000°12'0 0.8
2018-Jan-18 15:31N 50°01' W 000°12'0 0.7
2018-Jan-18 15:01N 50°02' W 000°12'0 0.6
2018-Jan-18 14:31N 50°02' W 000°11'0 0.5
2018-Jan-18 14:01N 50°02' W 000°11'0 0.6
2018-Jan-18 13:30N 50°03' W 000°12'0 0.6
2018-Jan-18 13:01N 50°03' W 000°12'0 0.2
2018-Jan-18 12:31N 50°03' W 000°12'3 6.6
2018-Jan-18 12:01N 50°01' W 000°07'5 9.9
2018-Jan-18 11:31N 50°01' E 000°00'4 8.4
2018-Jan-18 11:01N 50°03' E 000°05'1 2.8
2018-Jan-18 10:30N 50°04' E 000°03'2 3.8
2018-Jan-18 10:01N 50°03' E 000°00'2 4.2
2018-Jan-18 09:31N 50°03' W 000°03'2 4.4
2018-Jan-18 09:01N 50°03' W 000°06'2 4.3
2018-Jan-18 08:30N 50°03' W 000°10'2 4.3
2018-Jan-18 08:00N 50°03' W 000°13'2 4.1
2018-Jan-18 07:31N 50°03' W 000°16'2 3.8
2018-Jan-18 07:01N 50°03' W 000°19'2 3.4
2018-Jan-18 06:31N 50°03' W 000°22'1 2.9
2018-Jan-18 06:01N 50°03' W 000°24'1 2.5
2018-Jan-18 05:31N 50°04' W 000°26'4 7.0
2018-Jan-18 05:01N 50°05' W 000°31'610.1
2018-Jan-18 04:27N 50°09' W 000°38'4 9.9
2018-Jan-18 04:01N 50°12' W 000°43'810.5
2018-Jan-18 03:12N 50°19' W 000°48'210.9
2018-Jan-18 02:59N 50°22' W 000°49'510.8
2018-Jan-18 02:30N 50°27' W 000°51'510.4
2018-Jan-18 02:01N 50°32' W 000°54'510.2
2018-Jan-18 01:30N 50°37' W 000°56'4 8.7
2018-Jan-18 01:01N 50°41' W 000°57'1211.8
2018-Jan-18 00:00N 50°46' W 001°13'114.1
2018-Jan-17 23:58N 50°46' W 001°14'  
Track history (hours):
 
Tides and Currents Weather Stations Pressure Air Temp Water Temp Dewpoint Dewpoint Depression Visibility Wind Speed Wind Dir Waves Ship Positions

Nyk Romulus

Last reported at 2018-Jan-23 06:00 UTC. Time now 2018-Jan-23 06:22 UTC.
Position N 53°59' E 007°58'.

Length 294 m; draft 11.5 m.

Type: Cargo ship. MMSI: 563079000.

Date/timePositionNaut miles runAvg speedWind from/ knotsBaromVisibWave heightAir tempDewpointWater temp
2018-Jan-23 06:00N 53°59' E 007°58'5 9.7
2018-Jan-23 05:30N 53°58' E 007°50'6 9.6
2018-Jan-23 04:54N 53°57' E 007°40'6 8.0
2018-Jan-23 04:09N 53°56' E 007°30'2 8.0
2018-Jan-23 03:57N 53°56' E 007°28'2 4.8
2018-Jan-23 03:27N 53°58' E 007°25'5 5.5
2018-Jan-23 02:36N 54°02' E 007°23'1 1.2
2018-Jan-23 01:33N 54°02' E 007°21'0 1.5
2018-Jan-23 01:30N 54°02' E 007°21'81 3.1
2018-Jan-21 23:23N 53°33' E 005°14'821.6
2018-Jan-21 23:00N 53°29' E 005°01'1121.4
2018-Jan-21 22:30N 53°25' E 004°46'1020.8
2018-Jan-21 22:00N 53°16' E 004°36'1320.8
2018-Jan-21 21:22N 53°04' E 004°25'720.2
2018-Jan-21 21:00N 52°58' E 004°19'1020.2
2018-Jan-21 20:30N 52°49' E 004°11'2620.2
2018-Jan-21 19:14N 52°26' E 003°53'520.7
2018-Jan-21 19:00N 52°21' E 003°52'1020.4
2018-Jan-21 18:30N 52°11' E 003°54'815.7
2018-Jan-21 18:00N 52°03' E 003°54'5 9.3
2018-Jan-21 17:30N 52°01' E 004°00'4 8.7
2018-Jan-21 17:01N 51°57' E 004°05'1 1.6
2018-Jan-21 16:31N 51°57' E 004°04'0 0.7
2018-Jan-21 15:59N 51°57' E 004°03'0 0.0
2018-Jan-21 15:29N 51°57' E 004°03'0 0.0
2018-Jan-21 14:59N 51°57' E 004°03'0 0.0
2018-Jan-21 14:29N 51°57' E 004°03'0 0.0
2018-Jan-21 13:59N 51°57' E 004°03'0 0.0
2018-Jan-21 13:29N 51°57' E 004°03'0 0.0
2018-Jan-21 12:59N 51°57' E 004°03'0 0.0
2018-Jan-21 12:29N 51°57' E 004°03'0 0.0
2018-Jan-21 11:59N 51°57' E 004°03'0 0.0
2018-Jan-21 11:29N 51°57' E 004°03'0 0.0
2018-Jan-21 10:59N 51°57' E 004°03'0 0.0
2018-Jan-21 10:29N 51°57' E 004°03'0 0.0
2018-Jan-21 09:59N 51°57' E 004°03'0 0.0
2018-Jan-21 09:29N 51°57' E 004°03'0 0.0
2018-Jan-21 08:59N 51°57' E 004°03'0 0.0
2018-Jan-21 08:29N 51°57' E 004°03'0 0.0
2018-Jan-21 07:59N 51°57' E 004°03'0 0.0
2018-Jan-21 07:29N 51°57' E 004°03'0 0.0
2018-Jan-21 06:59N 51°57' E 004°03'0 0.0
2018-Jan-21 06:29N 51°57' E 004°03'0 0.0
2018-Jan-21 05:59N 51°57' E 004°03'0 0.0
2018-Jan-21 05:29N 51°57' E 004°03'0 0.0
2018-Jan-21 04:59N 51°57' E 004°03'0 0.0
2018-Jan-21 04:29N 51°57' E 004°03'0 0.0
2018-Jan-21 03:56N 51°57' E 004°03'0 0.0
2018-Jan-21 03:29N 51°57' E 004°03'0 0.0
2018-Jan-21 02:59N 51°57' E 004°03'0 0.0
2018-Jan-21 02:29N 51°57' E 004°03'0 0.0
2018-Jan-21 01:59N 51°57' E 004°03'0 0.0
2018-Jan-21 01:29N 51°57' E 004°03'0 0.0
2018-Jan-21 00:59N 51°57' E 004°03'0 0.0
2018-Jan-21 00:29N 51°57' E 004°03'0 0.0
2018-Jan-20 23:59N 51°57' E 004°03'0 0.0
2018-Jan-20 23:29N 51°57' E 004°03'0 0.0
2018-Jan-20 22:59N 51°57' E 004°03'0 0.0
2018-Jan-20 22:29N 51°57' E 004°03'1 1.1
2018-Jan-20 22:01N 51°57' E 004°04'2 3.7
2018-Jan-20 21:30N 51°59' E 004°05'3 6.6
2018-Jan-20 21:00N 52°00' E 003°60'3 6.3
2018-Jan-20 20:31N 52°01' E 003°55'3 6.9
2018-Jan-20 20:01N 51°60' E 003°49'5 9.7
2018-Jan-20 19:31N 51°59' E 003°42'510.5
2018-Jan-20 19:00N 51°57' E 003°34'19 2.8
2018-Jan-20 12:06N 51°53' E 003°03'0 0.7
2018-Jan-20 12:00N 51°54' E 003°03'26 6.0
2018-Jan-20 07:40N 51°40' E 002°27'2 8.7
2018-Jan-20 07:29N 51°39' E 002°25'4 7.8
2018-Jan-20 07:00N 51°36' E 002°22'4 8.5
2018-Jan-20 06:30N 51°33' E 002°17'510.4
2018-Jan-20 06:01N 51°29' E 002°12'611.5
2018-Jan-20 05:31N 51°24' E 002°06'4 8.9
2018-Jan-20 05:01N 51°21' E 002°01'5 9.2
2018-Jan-20 04:30N 51°18' E 001°56'5 9.6
2018-Jan-20 04:00N 51°14' E 001°50'612.7
2018-Jan-20 03:31N 51°09' E 001°44'713.1
2018-Jan-20 03:00N 51°04' E 001°38'612.2
2018-Jan-20 02:30N 50°59' E 001°33'611.5
2018-Jan-20 02:00N 50°54' E 001°28'1312.3
2018-Jan-20 00:59N 50°42' E 001°21'6 9.2
2018-Jan-20 00:17N 50°38' E 001°14'310.6
2018-Jan-20 00:00N 50°36' E 001°10'611.3
2018-Jan-19 23:30N 50°32' E 001°04'611.5
2018-Jan-19 22:57N 50°29' E 000°55'613.4
2018-Jan-19 22:30N 50°27' E 000°46'1212.7
2018-Jan-19 21:32N 50°22' E 000°28'112.2
2018-Jan-19 21:26N 50°22' E 000°27'512.1
2018-Jan-19 21:00N 50°20' E 000°19'612.0
2018-Jan-19 20:31N 50°18' E 000°10'612.0
2018-Jan-19 20:00N 50°15' E 000°02'811.9
2018-Jan-19 19:17N 50°09' W 000°07'311.2
2018-Jan-19 19:01N 50°06' W 000°09'5 9.6
2018-Jan-19 18:31N 50°01' W 000°10'0 0.7
2018-Jan-19 18:01N 50°01' W 000°11'0 0.8
2018-Jan-19 17:30N 50°01' W 000°11'0 0.5
2018-Jan-19 17:01N 50°01' W 000°12'0 0.3
2018-Jan-19 16:31N 50°01' W 000°12'1 1.8
2018-Jan-19 16:00N 50°01' W 000°11'511.1
2018-Jan-19 15:31N 49°58' W 000°04'2 3.6
2018-Jan-19 15:00N 49°58' W 000°01'0 0.7
2018-Jan-19 14:31N 49°58' W 000°01'0 0.8
2018-Jan-19 14:01N 49°59' W 000°01'0 0.9
2018-Jan-19 13:31N 49°59' W 000°01'1 1.1
2018-Jan-19 13:01N 49°59' W 000°02'1 1.5
2018-Jan-19 12:30N 49°60' W 000°03'1 1.9
2018-Jan-19 12:00N 49°60' W 000°05'1 2.3
2018-Jan-19 11:31N 50°00' W 000°06'1 2.7
2018-Jan-19 11:01N 50°00' W 000°09'2 3.1
2018-Jan-19 10:30N 50°00' W 000°11'2 3.3
2018-Jan-19 10:00N 50°00' W 000°14'2 3.5
2018-Jan-19 09:31N 50°00' W 000°16'2 3.5
2018-Jan-19 09:01N 50°01' W 000°19'2 3.3
2018-Jan-19 08:31N 50°01' W 000°21'2 3.2
2018-Jan-19 08:00N 50°02' W 000°24'1 2.7
2018-Jan-19 07:30N 50°02' W 000°26'1 1.5
2018-Jan-19 07:01N 50°03' W 000°27'2 5.0
2018-Jan-19 06:30N 50°01' W 000°24'510.6
2018-Jan-19 06:01N 49°57' W 000°18'2 4.4
2018-Jan-19 05:30N 49°57' W 000°14'1 1.4
2018-Jan-19 04:59N 49°58' W 000°14'1 1.3
2018-Jan-19 04:31N 49°58' W 000°14'1 1.4
2018-Jan-19 04:01N 49°59' W 000°14'1 1.2
2018-Jan-19 03:31N 49°59' W 000°13'1 1.3
2018-Jan-19 03:01N 50°00' W 000°13'1 1.1
2018-Jan-19 02:31N 50°01' W 000°13'0 0.9
2018-Jan-19 02:00N 50°01' W 000°13'0 0.9
2018-Jan-19 01:31N 50°01' W 000°13'1 1.1
2018-Jan-19 01:01N 50°02' W 000°14'1 1.4
2018-Jan-19 00:31N 50°02' W 000°15'1 2.0
2018-Jan-19 00:01N 50°02' W 000°16'1 2.5
2018-Jan-18 23:31N 50°03' W 000°18'2 3.1
2018-Jan-18 23:00N 50°03' W 000°20'2 3.6
2018-Jan-18 22:30N 50°03' W 000°23'2 4.1
2018-Jan-18 22:00N 50°03' W 000°26'2 3.9
2018-Jan-18 21:30N 50°03' W 000°29'2 4.5
2018-Jan-18 21:01N 50°02' W 000°26'4 8.6
2018-Jan-18 20:31N 50°01' W 000°20'4 8.9
2018-Jan-18 20:01N 49°59' W 000°14'5 9.0
2018-Jan-18 19:31N 49°57' W 000°08'1 2.0
2018-Jan-18 19:00N 49°58' W 000°08'1 2.2
2018-Jan-18 18:30N 49°58' W 000°10'1 2.0
2018-Jan-18 18:00N 49°59' W 000°11'1 1.6
2018-Jan-18 17:31N 49°60' W 000°11'1 1.2
2018-Jan-18 17:01N 50°00' W 000°12'1 1.0
2018-Jan-18 16:31N 50°01' W 000°12'0 0.9
2018-Jan-18 16:01N 50°01' W 000°12'0 0.8
2018-Jan-18 15:31N 50°01' W 000°12'0 0.7
2018-Jan-18 15:01N 50°02' W 000°12'0 0.6
2018-Jan-18 14:31N 50°02' W 000°11'0 0.5
2018-Jan-18 14:01N 50°02' W 000°11'0 0.6
2018-Jan-18 13:30N 50°03' W 000°12'0 0.6
2018-Jan-18 13:01N 50°03' W 000°12'0 0.2
2018-Jan-18 12:31N 50°03' W 000°12'3 6.6
2018-Jan-18 12:01N 50°01' W 000°07'5 9.9
2018-Jan-18 11:31N 50°01' E 000°00'4 8.4
2018-Jan-18 11:01N 50°03' E 000°05'1 2.8
2018-Jan-18 10:30N 50°04' E 000°03'2 3.8
2018-Jan-18 10:01N 50°03' E 000°00'2 4.2
2018-Jan-18 09:31N 50°03' W 000°03'2 4.4
2018-Jan-18 09:01N 50°03' W 000°06'2 4.3
2018-Jan-18 08:30N 50°03' W 000°10'2 4.3
2018-Jan-18 08:00N 50°03' W 000°13'2 4.1
2018-Jan-18 07:31N 50°03' W 000°16'2 3.8
2018-Jan-18 07:01N 50°03' W 000°19'2 3.4
2018-Jan-18 06:31N 50°03' W 000°22'1 2.9
2018-Jan-18 06:01N 50°03' W 000°24'1 2.5
2018-Jan-18 05:31N 50°04' W 000°26'4 7.0
2018-Jan-18 05:01N 50°05' W 000°31'610.1
2018-Jan-18 04:27N 50°09' W 000°38'4 9.9
2018-Jan-18 04:01N 50°12' W 000°43'810.5
2018-Jan-18 03:12N 50°19' W 000°48'210.9
2018-Jan-18 02:59N 50°22' W 000°49'510.8
2018-Jan-18 02:30N 50°27' W 000°51'510.4
2018-Jan-18 02:01N 50°32' W 000°54'510.2
2018-Jan-18 01:30N 50°37' W 000°56'4 8.7
2018-Jan-18 01:01N 50°41' W 000°57'1211.8
2018-Jan-18 00:00N 50°46' W 001°13'114.1
2018-Jan-17 23:58N 50°46' W 001°14'  

Dump ship's entire track history